Wing, AL (36483)

4:26 PM CST on February 07, 2016 (GMT -0600)
RAWS | | Change Station
CLOSE
Current Station
Personal Weather Station
Location: Wing, AL
Elevation: 274 ft
Nearby Weather Stations
Active Advisory: Wind Advisory

Elev 274 ft 31.09 °N, 86.55 °W | Updated 1 day ago

Clear
Clear
44 °F
Feels Like 44 °F
N
3
Wind Variable Wind from West
Gusts mph

Today
High -- | Low -- °F
--% Chance of Precip.
Yesterday
High -- | Low -- °F
Precip. -- in
Pressure 30.06 in
Visibility 10.0 miles
Clouds Clear
Dew Point 32 °F
Humidity 61%
Rainfall in
Snow Depth Not available.
6:34 AM 5:26 PM
Waning Crescent, 1% visible
METAR K79J 072156Z AUTO 33007KT 10SM CLR 17/M05 A3006 RMK AO2 SLP177 T01671050
Pressure 30.06 in
Visibility 10.0 miles
Clouds Clear
Dew Point 32 °F
Humidity 61%
Rainfall in
Snow Depth Not available.
6:34 AM 5:26 PM
Waning Crescent, 1% visible
METAR K79J 072156Z AUTO 33007KT 10SM CLR 17/M05 A3006 RMK AO2 SLP177 T01671050

10-Day Weather Forecast

Almanac

Astronomy

Feb. 07, 2016 Rise Set
Actual Time
Civil Twilight
Nautical Twilight
Astronomical Twilight
Moon
Length of Visible Light
Length of Day
Tomorrow will be .
, % of the Moon is Illuminated

Today's Extremes

State Highs State Lows

Community

WunderPhotos

Upload Photos

1,891,318 photos uploaded!

WunderBlog® & News

Nearby

Air Quality

  Air Quality AQ Index Pollutant
Not available.

Snow Depth

Station Depth Elevation

Earthquake Activity

City Distance Mag. Time & Date
Minimum magnitude displayed is 2.5.

Coastal Water Temperatures

Place Temperature

Stations

Nearby Weather Stations

Station Location Temp. Windchill Dew Point Humidity Wind Precip. Elev Updated Type
                   

Watches & Warnings

Wind Advisory
Issued: 2:49 PM CST Feb. 7, 2016 – National Weather Service

... Wind Advisory in effect from noon to 6 PM CST Monday...

The National Weather Service in Mobile has issued a Wind
Advisory... which is in effect from noon to 6 PM CST Monday.

* Timing... Monday afternoon.

* Winds... northwest and increasing to 20 to 25 mph with frequent
higher gusts in excess of 30 mph.

Precautionary/preparedness actions...

A Wind Advisory means that winds of 30 to 39 mph are expected.
Winds this strong can make driving difficult...
especially for high profile vehicles. Use extra caution.